createdAt,value
2023-01-20T00:01:39.389Z,-0.20
2023-01-20T00:04:06.436Z,-0.20
2023-01-20T00:06:33.453Z,-0.20
2023-01-20T00:09:02.591Z,-0.30
2023-01-20T00:11:30.177Z,-0.30
2023-01-20T00:13:59.872Z,-0.30
2023-01-20T00:16:27.425Z,-0.40
2023-01-20T00:18:55.002Z,-0.40
2023-01-20T00:21:22.456Z,-0.40
2023-01-20T00:23:50.256Z,-0.40
2023-01-20T00:26:21.140Z,-0.40
2023-01-20T00:28:48.674Z,-0.40
2023-01-20T00:31:22.776Z,-0.40
2023-01-20T00:33:51.442Z,-0.40
2023-01-20T00:36:20.739Z,-0.50
2023-01-20T00:38:48.421Z,-0.50
2023-01-20T00:41:15.749Z,-0.50
2023-01-20T00:43:43.099Z,-0.50
2023-01-20T00:46:10.497Z,-0.50
2023-01-20T00:48:37.460Z,-0.50
2023-01-20T00:51:05.807Z,-0.50
2023-01-20T00:53:32.874Z,-0.50
2023-01-20T00:56:00.067Z,-0.50
2023-01-20T00:58:27.174Z,-0.50
2023-01-20T01:00:56.041Z,-0.40
2023-01-20T01:03:23.268Z,-0.50
2023-01-20T01:05:50.315Z,-0.50
2023-01-20T01:08:17.349Z,-0.50
2023-01-20T01:10:44.142Z,-0.50
2023-01-20T01:13:11.505Z,-0.50
2023-01-20T01:15:38.314Z,-0.60
2023-01-20T01:18:05.272Z,-0.60
2023-01-20T01:20:32.226Z,-0.60
2023-01-20T01:22:59.048Z,-0.70
2023-01-20T01:25:25.935Z,-0.70
2023-01-20T01:27:52.767Z,-0.70
2023-01-20T01:30:19.723Z,-0.70
2023-01-20T01:32:47.975Z,-0.70
2023-01-20T01:35:15.208Z,-0.70
2023-01-20T01:37:42.274Z,-0.80
2023-01-20T01:40:10.347Z,-0.80
2023-01-20T01:42:37.737Z,-0.80
2023-01-20T01:45:10.664Z,-0.80
2023-01-20T01:47:45.564Z,-0.80
2023-01-20T01:50:19.661Z,-0.90
2023-01-20T01:52:50.864Z,-1.00
2023-01-20T01:55:19.598Z,-1.00
2023-01-20T01:57:48.112Z,-1.00
2023-01-20T02:00:15.339Z,-1.00
2023-01-20T02:02:44.126Z,-1.00
2023-01-20T02:05:13.851Z,-1.00
2023-01-20T02:07:44.931Z,-1.00
2023-01-20T02:10:13.141Z,-1.00
2023-01-20T02:12:41.738Z,-1.00
2023-01-20T02:15:09.497Z,-1.00
2023-01-20T02:18:12.649Z,-1.00
2023-01-20T02:21:21.908Z,-1.10
2023-01-20T02:24:21.473Z,-1.10
2023-01-20T02:27:05.147Z,-1.10
2023-01-20T02:30:01.691Z,-1.10
2023-01-20T02:32:50.604Z,-1.20
2023-01-20T02:35:40.480Z,-1.20
2023-01-20T02:38:28.505Z,-1.10
2023-01-20T02:41:16.091Z,-1.10
2023-01-20T02:44:23.101Z,-1.00
2023-01-20T02:47:02.651Z,-1.00
2023-01-20T02:50:04.264Z,-0.90
2023-01-20T02:52:44.347Z,-0.90
2023-01-20T02:55:22.418Z,-0.90
2023-01-20T02:57:56.403Z,-0.90
2023-01-20T03:00:55.804Z,-0.90
2023-01-20T03:03:35.971Z,-0.90
2023-01-20T03:06:10.041Z,-1.00
2023-01-20T03:08:39.900Z,-1.10
2023-01-20T03:11:09.205Z,-1.10
2023-01-20T03:13:49.055Z,-1.10
2023-01-20T03:16:22.913Z,-1.10
2023-01-20T03:18:50.974Z,-1.20
2023-01-20T03:21:18.507Z,-1.20
2023-01-20T03:23:49.702Z,-1.20
2023-01-20T03:26:19.275Z,-1.20
2023-01-20T03:28:48.790Z,-1.20
2023-01-20T03:31:31.079Z,-1.10
2023-01-20T03:34:00.871Z,-1.20
2023-01-20T03:36:30.199Z,-1.20
2023-01-20T03:38:58.522Z,-1.30
2023-01-20T03:41:51.383Z,-1.30
2023-01-20T03:44:37.681Z,-1.40
2023-01-20T03:47:17.606Z,-1.40
2023-01-20T03:50:09.163Z,-1.40
2023-01-20T03:52:54.252Z,-1.50
2023-01-20T03:55:34.414Z,-1.50
2023-01-20T03:58:15.741Z,-1.50
2023-01-20T04:00:49.646Z,-1.50
2023-01-20T04:03:27.154Z,-1.50
2023-01-20T04:05:56.278Z,-1.60
2023-01-20T04:08:26.763Z,-1.60
2023-01-20T04:10:55.574Z,-1.70
2023-01-20T04:13:22.422Z,-1.70
2023-01-20T04:15:50.213Z,-1.70
2023-01-20T04:18:24.214Z,-1.70
2023-01-20T04:20:57.856Z,-1.60
2023-01-20T04:23:28.631Z,-1.60
2023-01-20T04:25:55.484Z,-1.60
2023-01-20T04:28:22.395Z,-1.70
2023-01-20T04:30:49.365Z,-1.70
2023-01-20T04:33:16.307Z,-1.80
2023-01-20T04:35:43.209Z,-1.80
2023-01-20T04:38:10.075Z,-1.90
2023-01-20T04:40:36.992Z,-1.80
2023-01-20T04:43:04.085Z,-1.80
2023-01-20T04:45:30.955Z,-1.80
2023-01-20T04:47:57.860Z,-1.80
2023-01-20T04:50:24.725Z,-1.80
2023-01-20T04:52:55.750Z,-1.80
2023-01-20T04:55:22.707Z,-1.80
2023-01-20T04:57:49.543Z,-1.70
2023-01-20T05:00:20.020Z,-1.70
2023-01-20T05:02:47.656Z,-1.70
2023-01-20T05:05:14.906Z,-1.70
2023-01-20T05:07:41.926Z,-1.70
2023-01-20T05:10:09.741Z,-1.70
2023-01-20T05:12:36.575Z,-1.70
2023-01-20T05:15:03.659Z,-1.70
2023-01-20T05:17:30.640Z,-1.70
2023-01-20T05:19:57.453Z,-1.70
2023-01-20T05:22:24.358Z,-1.80
2023-01-20T05:24:51.149Z,-1.90
2023-01-20T05:27:18.020Z,-2.00
2023-01-20T05:29:44.954Z,-2.10
2023-01-20T05:32:11.897Z,-2.10
2023-01-20T05:34:38.763Z,-2.10
2023-01-20T05:37:05.650Z,-2.00
2023-01-20T05:39:32.489Z,-2.00
2023-01-20T05:41:59.278Z,-2.00
2023-01-20T05:44:26.250Z,-2.00
2023-01-20T05:46:53.245Z,-2.00
2023-01-20T05:49:20.054Z,-2.00
2023-01-20T05:51:46.838Z,-1.90
2023-01-20T05:54:13.661Z,-1.90
2023-01-20T05:56:40.493Z,-1.90
2023-01-20T05:59:08.170Z,-1.90
2023-01-20T06:01:34.968Z,-1.90
2023-01-20T06:04:01.914Z,-1.90
2023-01-20T06:06:28.795Z,-1.90
2023-01-20T06:08:55.644Z,-1.90
2023-01-20T06:11:22.728Z,-1.90
2023-01-20T06:13:49.868Z,-1.90
2023-01-20T06:16:18.379Z,-1.90
2023-01-20T06:18:45.839Z,-1.90
2023-01-20T06:21:12.788Z,-1.80
2023-01-20T06:23:39.688Z,-1.80
2023-01-20T06:26:13.487Z,-1.80
2023-01-20T06:28:41.147Z,-1.80
2023-01-20T06:31:15.592Z,-1.80
2023-01-20T06:33:43.575Z,-1.70
2023-01-20T06:36:13.779Z,-1.70
2023-01-20T06:38:40.774Z,-1.70
2023-01-20T06:41:14.931Z,-1.70
2023-01-20T06:43:42.056Z,-1.70
2023-01-20T06:46:13.026Z,-1.80
2023-01-20T06:48:40.635Z,-1.80
2023-01-20T06:51:13.142Z,-1.80
2023-01-20T06:53:40.316Z,-1.80
2023-01-20T06:56:09.198Z,-1.70
2023-01-20T06:58:36.012Z,-1.70
2023-01-20T07:01:28.410Z,-1.70
2023-01-20T07:03:55.694Z,-1.80
2023-01-20T07:06:40.517Z,-1.70
2023-01-20T07:09:10.734Z,-1.60
2023-01-20T07:11:37.826Z,-1.60
2023-01-20T07:14:05.970Z,-1.60
2023-01-20T07:16:33.567Z,-1.60
2023-01-20T07:19:00.646Z,-1.60
2023-01-20T07:21:28.158Z,-1.60
2023-01-20T07:23:55.085Z,-1.60
2023-01-20T07:26:26.273Z,-1.60
2023-01-20T07:28:53.418Z,-1.60
2023-01-20T07:31:26.883Z,-1.50
2023-01-20T07:33:57.598Z,-1.40
2023-01-20T07:36:25.006Z,-1.30
2023-01-20T07:38:53.200Z,-1.20
2023-01-20T07:41:21.359Z,-1.10
2023-01-20T07:43:50.905Z,-1.00
2023-01-20T07:46:18.599Z,-0.80
2023-01-20T07:48:45.800Z,-0.80
2023-01-20T07:51:15.248Z,-0.70
2023-01-20T07:53:48.184Z,-0.60
2023-01-20T07:56:25.635Z,-0.50
2023-01-20T07:58:54.115Z,-0.40
2023-01-20T08:01:27.975Z,-0.40
2023-01-20T08:03:55.572Z,-0.40
2023-01-20T08:06:24.986Z,-0.30
2023-01-20T08:08:52.644Z,-0.40
2023-01-20T08:11:22.270Z,-0.50
2023-01-20T08:13:49.569Z,-0.60
2023-01-20T08:16:18.624Z,-0.60
2023-01-20T08:18:46.536Z,-0.50
2023-01-20T08:21:30.713Z,-0.40
2023-01-20T08:23:59.536Z,-0.30
2023-01-20T08:26:29.445Z,-0.30
2023-01-20T08:29:06.407Z,-0.30
2023-01-20T08:31:33.600Z,-0.20
2023-01-20T08:34:00.553Z,0.00
2023-01-20T08:36:34.907Z,0.10
2023-01-20T08:39:04.793Z,0.30
2023-01-20T08:41:36.198Z,0.60
2023-01-20T08:44:05.914Z,0.70
2023-01-20T08:46:33.451Z,0.70
2023-01-20T08:49:00.809Z,0.80
2023-01-20T08:51:31.812Z,0.60
2023-01-20T08:53:59.287Z,0.50
2023-01-20T08:56:26.948Z,0.50
2023-01-20T08:58:54.069Z,0.60
2023-01-20T09:01:28.738Z,0.80
2023-01-20T09:04:05.369Z,0.80
2023-01-20T09:06:46.389Z,0.90
2023-01-20T09:09:15.792Z,0.90
2023-01-20T09:11:50.518Z,0.80
2023-01-20T09:14:22.963Z,0.90
2023-01-20T09:16:50.643Z,0.80
2023-01-20T09:19:17.801Z,0.60
2023-01-20T09:21:44.897Z,0.70
2023-01-20T09:24:12.020Z,0.90
2023-01-20T09:26:39.056Z,0.90
2023-01-20T09:29:12.256Z,0.90
2023-01-20T09:31:59.030Z,0.80
2023-01-20T09:34:29.365Z,0.70
2023-01-20T09:37:19.650Z,0.80
2023-01-20T09:40:06.376Z,0.90
2023-01-20T09:43:23.965Z,1.00
2023-01-20T09:46:10.592Z,1.30
2023-01-20T09:49:07.357Z,1.60
2023-01-20T09:52:30.891Z,1.50
2023-01-20T09:55:07.882Z,1.70
2023-01-20T09:57:40.383Z,1.80
2023-01-20T10:00:20.460Z,1.80
2023-01-20T10:02:53.885Z,1.90
2023-01-20T10:05:26.939Z,2.10
2023-01-20T10:07:59.001Z,1.90
2023-01-20T10:10:40.990Z,1.70
2023-01-20T10:13:44.087Z,1.50
2023-01-20T10:16:18.801Z,1.40
2023-01-20T10:18:57.755Z,1.30
2023-01-20T10:22:05.147Z,1.30
2023-01-20T10:24:39.646Z,1.20
2023-01-20T10:27:06.511Z,1.20
2023-01-20T10:29:41.823Z,1.30
2023-01-20T10:32:23.723Z,1.30
2023-01-20T10:34:56.672Z,1.20
2023-01-20T10:37:24.475Z,1.30
2023-01-20T10:40:10.331Z,1.00
2023-01-20T10:42:37.145Z,1.00
2023-01-20T10:45:06.012Z,1.10
2023-01-20T10:47:55.791Z,1.20
2023-01-20T10:50:31.360Z,1.30
2023-01-20T10:53:30.266Z,1.00
2023-01-20T10:56:08.882Z,1.00
2023-01-20T10:58:40.925Z,1.10
2023-01-20T11:01:12.602Z,1.00
2023-01-20T11:03:45.597Z,1.00
2023-01-20T11:06:25.178Z,0.90
2023-01-20T11:08:52.712Z,0.90
2023-01-20T11:11:22.985Z,0.90
2023-01-20T11:13:51.822Z,1.10
2023-01-20T11:16:25.682Z,1.00
2023-01-20T11:19:06.053Z,0.90
2023-01-20T11:21:36.826Z,1.10
2023-01-20T11:24:31.878Z,1.30
2023-01-20T11:27:12.131Z,1.50
2023-01-20T11:29:49.986Z,1.70
2023-01-20T11:32:36.842Z,1.80
2023-01-20T11:35:21.242Z,2.00
2023-01-20T11:37:48.308Z,2.00
2023-01-20T11:40:29.123Z,2.10
2023-01-20T11:42:55.976Z,2.40
2023-01-20T11:45:34.641Z,2.50
2023-01-20T11:48:05.910Z,2.80
2023-01-20T11:50:37.332Z,3.10
2023-01-20T11:53:27.898Z,3.00
2023-01-20T11:55:58.753Z,3.10
2023-01-20T11:58:55.400Z,3.00
2023-01-20T12:01:58.179Z,2.80
2023-01-20T12:05:01.291Z,2.80
2023-01-20T12:07:45.029Z,3.00
2023-01-20T12:10:24.079Z,2.90
2023-01-20T12:13:05.945Z,2.20
2023-01-20T12:15:38.083Z,1.70
2023-01-20T12:18:19.512Z,1.70
2023-01-20T12:20:55.462Z,1.70
2023-01-20T12:23:46.073Z,1.70
2023-01-20T12:26:18.413Z,1.90
2023-01-20T12:29:19.485Z,2.00
2023-01-20T12:31:49.134Z,2.10
2023-01-20T12:34:38.924Z,2.20
2023-01-20T12:37:39.665Z,2.10
2023-01-20T12:40:42.216Z,2.00
2023-01-20T12:43:37.789Z,1.90
2023-01-20T12:46:56.813Z,1.80
2023-01-20T12:49:45.779Z,1.80
2023-01-20T12:53:05.524Z,1.90
2023-01-20T12:56:10.786Z,1.70
2023-01-20T12:59:23.874Z,1.30
2023-01-20T13:02:20.064Z,1.30
2023-01-20T13:05:17.032Z,1.20
2023-01-20T13:08:24.877Z,1.10
2023-01-20T13:11:43.589Z,1.40
2023-01-20T13:14:28.844Z,1.50
2023-01-20T13:17:18.683Z,1.70
2023-01-20T13:19:47.978Z,1.60
2023-01-20T13:22:23.062Z,1.60
2023-01-20T13:24:56.895Z,1.50
2023-01-20T13:27:34.741Z,1.60
2023-01-20T13:30:05.106Z,1.60
2023-01-20T13:32:37.925Z,1.60
2023-01-20T13:35:27.379Z,1.70
2023-01-20T13:38:00.138Z,1.70
2023-01-20T13:40:36.087Z,1.60
2023-01-20T13:43:04.276Z,1.50
2023-01-20T13:45:31.349Z,1.40
2023-01-20T13:48:06.985Z,1.50
2023-01-20T13:50:37.224Z,1.50
2023-01-20T13:53:09.934Z,1.50
2023-01-20T13:55:45.599Z,1.60
2023-01-20T13:58:22.279Z,1.80
2023-01-20T14:01:01.766Z,1.80
2023-01-20T14:03:38.147Z,1.60
2023-01-20T14:06:11.877Z,1.20
2023-01-20T14:08:50.766Z,1.20
2023-01-20T14:11:24.105Z,1.10
2023-01-20T14:13:59.038Z,1.00
2023-01-20T14:16:37.100Z,1.10
2023-01-20T14:19:34.221Z,1.00
2023-01-20T14:22:27.863Z,1.00
2023-01-20T14:25:00.785Z,1.00
2023-01-20T14:27:35.401Z,1.20
2023-01-20T14:30:26.590Z,1.20
2023-01-20T14:32:54.358Z,1.20
2023-01-20T14:35:33.606Z,1.10
2023-01-20T14:38:01.257Z,0.90
2023-01-20T14:40:35.337Z,1.00
2023-01-20T14:43:20.390Z,1.00
2023-01-20T14:45:51.515Z,1.10
2023-01-20T14:48:33.441Z,1.00
2023-01-20T14:51:04.142Z,1.10
2023-01-20T14:53:31.021Z,0.90
2023-01-20T14:56:09.705Z,0.90
2023-01-20T14:58:44.472Z,0.90
2023-01-20T15:01:22.709Z,1.00
2023-01-20T15:03:59.478Z,0.90
2023-01-20T15:06:26.841Z,0.80
2023-01-20T15:09:06.175Z,0.60
2023-01-20T15:11:34.334Z,0.50
2023-01-20T15:14:01.280Z,0.50
2023-01-20T15:16:37.006Z,0.60
2023-01-20T15:19:20.044Z,0.60
2023-01-20T15:21:51.169Z,0.70
2023-01-20T15:24:34.503Z,0.70
2023-01-20T15:27:02.718Z,0.60
2023-01-20T15:29:33.647Z,0.60
2023-01-20T15:32:08.787Z,0.60
2023-01-20T15:34:35.624Z,0.70
2023-01-20T15:37:02.551Z,0.70
2023-01-20T15:39:30.242Z,0.70
2023-01-20T15:41:58.145Z,0.60
2023-01-20T15:44:26.620Z,0.70
2023-01-20T15:46:57.368Z,0.60
2023-01-20T15:49:25.276Z,0.70
2023-01-20T15:51:52.613Z,0.60
2023-01-20T15:54:19.424Z,0.60
2023-01-20T15:56:46.286Z,0.60
2023-01-20T15:59:19.746Z,0.70
2023-01-20T16:01:50.368Z,0.60
2023-01-20T16:04:17.620Z,0.60
2023-01-20T16:06:44.874Z,0.60
2023-01-20T16:09:24.722Z,0.60
2023-01-20T16:11:52.035Z,0.60
2023-01-20T16:14:19.060Z,0.60
2023-01-20T16:16:45.913Z,0.60
2023-01-20T16:19:13.798Z,0.60
2023-01-20T16:21:41.355Z,0.70
2023-01-20T16:24:09.079Z,0.70
2023-01-20T16:26:36.084Z,0.70
2023-01-20T16:29:04.721Z,0.60
2023-01-20T16:31:33.317Z,0.60
2023-01-20T16:34:00.248Z,0.60
2023-01-20T16:36:27.103Z,0.50
2023-01-20T16:38:54.041Z,0.50
2023-01-20T16:41:27.977Z,0.50
2023-01-20T16:43:56.013Z,0.50
2023-01-20T16:46:32.697Z,0.40
2023-01-20T16:49:01.693Z,0.40
2023-01-20T16:51:30.343Z,0.30
2023-01-20T16:53:58.505Z,0.30
2023-01-20T16:56:31.404Z,0.30
2023-01-20T16:59:01.584Z,0.40
2023-01-20T17:01:30.038Z,0.30
2023-01-20T17:04:02.679Z,0.30
2023-01-20T17:06:33.567Z,0.30
2023-01-20T17:09:04.122Z,0.30
2023-01-20T17:11:37.982Z,0.30
2023-01-20T17:14:09.578Z,0.30
2023-01-20T17:16:37.915Z,0.30
2023-01-20T17:19:05.855Z,0.30
2023-01-20T17:21:37.746Z,0.40
2023-01-20T17:24:05.822Z,0.40
2023-01-20T17:26:33.386Z,0.40
2023-01-20T17:29:03.440Z,0.40
2023-01-20T17:31:36.615Z,0.50
2023-01-20T17:34:07.393Z,0.50
2023-01-20T17:36:35.004Z,0.50
2023-01-20T17:39:03.906Z,0.40
2023-01-20T17:41:31.068Z,0.50
2023-01-20T17:43:57.922Z,0.60
2023-01-20T17:46:28.936Z,0.50
2023-01-20T17:49:04.782Z,0.50
2023-01-20T17:51:31.645Z,0.40
2023-01-20T17:54:01.856Z,0.50
2023-01-20T17:56:30.413Z,0.50
2023-01-20T17:58:57.368Z,0.50
2023-01-20T18:01:27.912Z,0.50
2023-01-20T18:03:58.158Z,0.50
2023-01-20T18:06:26.905Z,0.50
2023-01-20T18:09:00.470Z,0.50
2023-01-20T18:11:30.965Z,0.50
2023-01-20T18:14:00.282Z,0.50
2023-01-20T18:16:31.067Z,0.40
2023-01-20T18:19:01.190Z,0.50
2023-01-20T18:21:37.097Z,0.50
2023-01-20T18:24:07.340Z,0.50
2023-01-20T18:26:37.487Z,0.40
2023-01-20T18:29:08.185Z,0.30
2023-01-20T18:31:35.914Z,0.30
2023-01-20T18:34:06.361Z,0.30
2023-01-20T18:36:39.892Z,0.20
2023-01-20T18:39:17.350Z,0.20
2023-01-20T18:41:44.737Z,0.20
2023-01-20T18:44:11.762Z,0.20
2023-01-20T18:46:38.789Z,0.20
2023-01-20T18:49:09.402Z,0.30
2023-01-20T18:51:36.632Z,0.30
2023-01-20T18:54:11.891Z,0.30
2023-01-20T18:56:39.364Z,0.30
2023-01-20T18:59:07.382Z,0.30
2023-01-20T19:01:37.893Z,0.30
2023-01-20T19:04:06.547Z,0.30
2023-01-20T19:06:40.669Z,0.20
2023-01-20T19:09:08.273Z,0.30
2023-01-20T19:11:39.585Z,0.30
2023-01-20T19:14:11.667Z,0.30
2023-01-20T19:16:42.112Z,0.30
2023-01-20T19:19:11.705Z,0.20
2023-01-20T19:21:38.815Z,0.20
2023-01-20T19:24:07.893Z,0.20
2023-01-20T19:26:38.899Z,0.30
2023-01-20T19:29:08.847Z,0.30
2023-01-20T19:31:39.359Z,0.20
2023-01-20T19:34:08.132Z,0.20
2023-01-20T19:36:35.776Z,0.20
2023-01-20T19:39:03.135Z,0.20
2023-01-20T19:41:35.925Z,0.20
2023-01-20T19:44:06.492Z,0.20
2023-01-20T19:46:36.627Z,0.20
2023-01-20T19:49:03.668Z,0.20
2023-01-20T19:51:31.423Z,0.20
2023-01-20T19:54:00.723Z,0.20
2023-01-20T19:56:31.792Z,0.20
2023-01-20T19:59:02.897Z,0.10
2023-01-20T20:01:36.799Z,0.10
2023-01-20T20:04:10.247Z,0.10
2023-01-20T20:06:48.552Z,0.10
2023-01-20T20:09:23.390Z,0.20
2023-01-20T20:11:50.451Z,0.20
2023-01-20T20:14:20.162Z,0.20
2023-01-20T20:16:47.679Z,0.20
2023-01-20T20:19:18.882Z,0.20
2023-01-20T20:21:46.274Z,0.20
2023-01-20T20:24:15.488Z,0.10
2023-01-20T20:26:44.525Z,0.10
2023-01-20T20:29:12.838Z,0.10
2023-01-20T20:31:40.493Z,0.10
2023-01-20T20:34:12.866Z,0.10
2023-01-20T20:36:40.052Z,0.00
2023-01-20T20:39:07.923Z,0.00
2023-01-20T20:41:36.588Z,0.00
2023-01-20T20:44:04.331Z,-0.10
2023-01-20T20:46:31.620Z,-0.10
2023-01-20T20:49:00.863Z,-0.20
2023-01-20T20:51:33.995Z,-0.30
2023-01-20T20:54:02.548Z,-0.40
2023-01-20T20:56:33.541Z,-0.40
2023-01-20T20:59:03.436Z,-0.40
2023-01-20T21:01:34.553Z,-0.40
2023-01-20T21:04:03.282Z,-0.50
2023-01-20T21:06:31.273Z,-0.40
2023-01-20T21:09:01.459Z,-0.60
2023-01-20T21:11:29.177Z,-0.70
2023-01-20T21:13:56.373Z,-0.80
2023-01-20T21:16:24.748Z,-0.80
2023-01-20T21:18:59.419Z,-0.70
2023-01-20T21:21:28.690Z,-0.70
2023-01-20T21:23:57.396Z,-0.70
2023-01-20T21:26:29.603Z,-0.60
2023-01-20T21:28:57.595Z,-0.60
2023-01-20T21:31:26.812Z,-0.60
2023-01-20T21:34:00.228Z,-0.50
2023-01-20T21:36:29.477Z,-0.50
2023-01-20T21:38:56.313Z,-0.50
2023-01-20T21:41:23.244Z,-0.40
2023-01-20T21:44:08.967Z,-0.40
2023-01-20T21:46:40.612Z,-0.40
2023-01-20T21:49:27.370Z,-0.50
2023-01-20T21:52:14.627Z,-0.50
2023-01-20T21:54:42.042Z,-0.50
2023-01-20T21:57:09.237Z,-0.50
2023-01-20T21:59:36.347Z,-0.50
2023-01-20T22:02:03.197Z,-0.50
2023-01-20T22:04:30.095Z,-0.50
2023-01-20T22:06:56.987Z,-0.50
2023-01-20T22:09:23.806Z,-0.50
2023-01-20T22:11:50.727Z,-0.60
2023-01-20T22:14:17.903Z,-0.60
2023-01-20T22:16:44.850Z,-0.60
2023-01-20T22:19:16.063Z,-0.70
2023-01-20T22:21:43.090Z,-0.70
2023-01-20T22:24:11.034Z,-0.70
2023-01-20T22:26:39.033Z,-0.70
2023-01-20T22:29:06.328Z,-0.70
2023-01-20T22:31:34.357Z,-0.70
2023-01-20T22:34:04.418Z,-0.80
2023-01-20T22:36:32.083Z,-0.70
2023-01-20T22:38:58.963Z,-0.70
2023-01-20T22:41:26.264Z,-0.80
2023-01-20T22:43:53.589Z,-0.80
2023-01-20T22:46:22.676Z,-0.80
2023-01-20T22:48:49.648Z,-0.90
2023-01-20T22:51:25.511Z,-0.90
2023-01-20T22:54:00.713Z,-0.90
2023-01-20T22:56:32.440Z,-0.90
2023-01-20T22:59:00.200Z,-0.80
2023-01-20T23:01:30.919Z,-0.80
2023-01-20T23:04:00.692Z,-0.70
2023-01-20T23:06:30.554Z,-0.80
2023-01-20T23:08:57.376Z,-0.80
2023-01-20T23:11:24.326Z,-0.80
2023-01-20T23:13:52.335Z,-0.80
2023-01-20T23:16:24.872Z,-0.80
2023-01-20T23:18:52.034Z,-0.80
2023-01-20T23:21:20.125Z,-0.80
2023-01-20T23:23:54.115Z,-0.80
2023-01-20T23:26:24.324Z,-0.80
2023-01-20T23:28:52.787Z,-0.80
2023-01-20T23:31:20.598Z,-0.80
2023-01-20T23:33:47.734Z,-0.70
2023-01-20T23:36:24.487Z,-0.70
2023-01-20T23:38:54.534Z,-0.80
2023-01-20T23:41:21.528Z,-0.70
2023-01-20T23:43:48.692Z,-0.80
2023-01-20T23:46:15.533Z,-0.80
2023-01-20T23:48:44.859Z,-0.80
2023-01-20T23:51:11.729Z,-0.80
2023-01-20T23:53:40.424Z,-0.80
2023-01-20T23:56:24.087Z,-0.80
2023-01-20T23:58:51.812Z,-0.80
